Historique des mesures à Cassis (13260), France
Quotidien Résumé Avril 26, 2017 Unités:  Métrique    US   Métrique/US
« Précédent (Jour)
Suivant (Jour) »
Quotidien Hebdomadaire Mensuel Annuel Période au choix
  Maximum: Minimum: Moyenne:
Température: TemperatureC °C 12.9 °C 14.5 °C
Point de rosée: DewpointC °C 6.4 °C 10.5 °C
Humidité: Humidity % 65 % 73 %
Vitesse du vent: 0 km/h 0 km/h 10.9 km/h
Rafales: 0 km/h - -
Vent:- - South
Pression: PressurehPa hPa 1001.6 hPa -
Précipitations: 5.6 mm    
Historical Graphs
 
 
Mesures pour : Avril 26, 2017
Heure Temperature Point de rosée Pression Vent Vitesse du vent Rafales Humidité Pluie (par heure) Conditions
TemperatureC °C DewpointC °C PressurehPa hPa Calm     Humidity % HourlyPrecipMM mm SoftwareType W/m2
00:10 15.9 °C 10.3 °C 1005.6 hPa SE 8 km/h 12.7 km/h 69 % 0.0 mm open2300-1.11 W/m2
01:11 15.8 °C 11.0 °C 1005.3 hPa SE 5.1 km/h 8 km/h 73 % 0.0 mm open2300-1.11 W/m2
02:11 15.7 °C 11.7 °C 1004.3 hPa SSE 5.1 km/h 6.9 km/h 77 % 0.0 mm open2300-1.11 W/m2
03:10 15.2 °C 11.8 °C 1003.3 hPa Calm   5.1 km/h 80 % 1.5 mm open2300-1.11 W/m2
04:10 15.0 °C 11.9 °C 1001.9 hPa NNW 16.3 km/h 16.3 km/h 82 % 1.0 mm open2300-1.11 W/m2
05:10 15.1 °C 12.6 °C 1001.6 hPa East 2.9 km/h 2.9 km/h 85 % 0.5 mm open2300-1.11 W/m2
06:10 15.1 °C 12.6 °C 1001.9 hPa Calm   5.6 km/h 85 % 2.0 mm open2300-1.11 W/m2
07:11 14.4 °C 12.1 °C 1001.9 hPa NNE 2.3 km/h 8 km/h 86 % 0.0 mm open2300-1.11 W/m2
08:11 14.2 °C 11.3 °C 1003.3 hPa NW 8.9 km/h 9.8 km/h 83 % 0.0 mm open2300-1.11 W/m2
09:10 14.2 °C 11.5 °C 1003.6 hPa NW 13.2 km/h 13.2 km/h 84 % 0.5 mm open2300-1.11 W/m2
10:10 14.8 °C 11.8 °C 1003.6 hPa WNW 26.2 km/h 26.2 km/h 82 % 0.0 mm open2300-1.11 W/m2
11:10 15.8 °C 12.0 °C 1003.3 hPa NW 32.3 km/h 37.5 km/h 78 % 0.0 mm open2300-1.11 W/m2
12:10 17.0 °C 12.3 °C 1004.3 hPa Calm   2.3 km/h 74 % 0.0 mm open2300-1.11 W/m2
13:10 17.0 °C 11.3 °C 1004.3 hPa North 22 km/h 22 km/h 69 % 0.0 mm open2300-1.11 W/m2
14:11 16.8 °C 11.3 °C 1003.9 hPa NNE 12.7 km/h 30.7 km/h 70 % 0.0 mm open2300-1.11 W/m2
15:10 15.9 °C 11.1 °C 1004.6 hPa North 13.2 km/h 13.2 km/h 73 % 0.0 mm open2300-1.11 W/m2
16:11 15.5 °C 10.7 °C 1003.9 hPa WNW 22.5 km/h 24.8 km/h 73 % 0.0 mm open2300-1.11 W/m2
17:10 14.9 °C 10.5 °C 1004.6 hPa North 16.9 km/h 16.9 km/h 75 % 0.0 mm open2300-1.11 W/m2
18:11 15.2 °C 11.0 °C 1004.6 hPa NW 6.9 km/h 12.7 km/h 76 % 0.0 mm open2300-1.11 W/m2
19:10 15.2 °C 10.6 °C 1004.6 hPa NNW 9.3 km/h 13.2 km/h 74 % 0.0 mm open2300-1.11 W/m2
20:10 14.6 °C 10.6 °C 1005.0 hPa SW 3.4 km/h 29 km/h 77 % 0.0 mm open2300-1.11 W/m2
21:10 14.0 °C 8.8 °C 1005.3 hPa North 14 km/h 23.8 km/h 71 % 0.0 mm open2300-1.11 W/m2
22:10 13.3 °C 7.9 °C 1006.3 hPa North 17.9 km/h 43.5 km/h 70 % 0.0 mm open2300-1.11 W/m2
23:10 12.9 °C 6.4 °C 1006.3 hPa WNW 16.3 km/h 17.9 km/h 65 % 0.0 mm open2300-1.11 W/m2
Observations météo à CASSIS
WU-History script by Weather Underground - 1 mb